Time;durP1;ratioP1;P1;durP2;ratioP2;P2;SDS_P1;SDS_P2;PMS_P1;PMS_P2;Temp;Humidity;BMP_temperature;BMP_pressure;BME280_temperature;BME280_humidity;BME280_pressure;Samples;Min_cycle;Max_cycle;Signal;HPM_P1;HPM_P2
2022/09/21 00:00:39;;;;;;;2.78;2.05;;;17.90;63.60;;;;;;4995630;28;20053;-53
2022/09/21 00:03:05;;;;;;;3.50;2.73;;;17.90;63.60;;;;;;4995590;28;20084;-53
2022/09/21 00:05:32;;;;;;;4.05;2.60;;;17.90;63.70;;;;;;4995736;28;20405;-53
2022/09/21 00:08:00;;;;;;;4.00;2.33;;;17.90;63.60;;;;;;4995764;28;20023;-53
2022/09/21 00:10:26;;;;;;;5.28;2.72;;;17.90;63.70;;;;;;4978136;28;20531;-53
2022/09/21 00:12:52;;;;;;;5.50;2.60;;;17.90;63.70;;;;;;4977825;28;20038;-52
2022/09/21 00:15:18;;;;;;;2.83;2.40;;;17.90;63.60;;;;;;4977946;28;20030;-53
2022/09/21 00:17:45;;;;;;;6.05;2.42;;;17.80;63.50;;;;;;4995316;28;20035;-54
2022/09/21 00:20:11;;;;;;;10.18;3.42;;;17.80;63.50;;;;;;4995224;28;20042;-52
2022/09/21 00:22:37;;;;;;;5.57;2.80;;;17.80;63.40;;;;;;4995122;28;20093;-52
2022/09/21 00:25:03;;;;;;;3.88;2.00;;;17.80;63.30;;;;;;4995565;28;20035;-52
2022/09/21 00:27:30;;;;;;;7.40;2.17;;;17.80;63.30;;;;;;4994860;28;20022;-53
2022/09/21 00:29:57;;;;;;;3.15;2.10;;;17.80;63.30;;;;;;4994843;28;20036;-53
2022/09/21 00:32:26;;;;;;;4.88;2.00;;;17.80;63.30;;;;;;4994983;28;20109;-53
2022/09/21 00:34:52;;;;;;;6.93;2.00;;;17.70;63.20;;;;;;4995017;28;20050;-55
2022/09/21 00:37:19;;;;;;;2.60;1.88;;;17.70;63.20;;;;;;4995188;28;20058;-52
2022/09/21 00:39:45;;;;;;;3.50;2.00;;;17.70;63.30;;;;;;4994990;28;20038;-52
2022/09/21 00:42:24;;;;;;;3.08;2.00;;;17.70;63.20;;;;;;4995250;28;20033;-54
2022/09/21 00:44:50;;;;;;;4.25;2.15;;;17.70;63.50;;;;;;4993869;28;20026;-53
2022/09/21 00:47:21;;;;;;;3.95;2.00;;;17.70;63.20;;;;;;4995122;28;20022;-55
2022/09/21 00:49:50;;;;;;;5.20;2.00;;;17.70;63.40;;;;;;4993580;28;20097;-52
2022/09/21 00:52:21;;;;;;;2.90;1.88;;;17.60;63.30;;;;;;4977453;28;20054;-53
2022/09/21 00:55:11;;;;;;;2.78;1.70;;;17.60;63.30;;;;;;4994975;28;20505;-52
2022/09/21 00:57:38;;;;;;;5.47;1.90;;;17.60;63.50;;;;;;4995041;28;20030;-54
2022/09/21 01:00:07;;;;;;;3.20;2.03;;;17.60;63.20;;;;;;4977116;28;20080;-53
2022/09/21 01:02:34;;;;;;;7.32;2.67;;;17.60;63.20;;;;;;4977262;28;20105;-53
2022/09/21 01:05:01;;;;;;;2.58;1.60;;;17.60;63.40;;;;;;4972904;28;20397;-52
2022/09/21 01:07:32;;;;;;;3.60;1.88;;;17.60;63.50;;;;;;4975262;28;20122;-54
2022/09/21 01:10:01;;;;;;;2.63;1.88;;;17.50;63.50;;;;;;4975600;28;20064;-52
2022/09/21 01:12:42;;;;;;;3.78;1.77;;;17.50;63.80;;;;;;4994075;28;20524;-52
2022/09/21 01:15:25;;;;;;;5.10;1.95;;;17.40;65.00;;;;;;4994232;28;20034;-53
2022/09/21 01:18:29;;;;;;;3.72;1.95;;;17.30;64.40;;;;;;4994548;28;20085;-52
2022/09/21 01:21:24;;;;;;;4.50;1.77;;;17.30;64.70;;;;;;4994133;28;20034;-52
2022/09/21 01:24:01;;;;;;;14.65;2.50;;;17.20;64.60;;;;;;4993791;28;20030;-52
2022/09/21 01:26:55;;;;;;;4.50;2.08;;;17.30;65.00;;;;;;4994241;28;20026;-53
2022/09/21 01:29:24;;;;;;;4.80;2.45;;;17.30;64.70;;;;;;4976343;28;20050;-53
2022/09/21 01:32:10;;;;;;;3.90;2.25;;;17.20;64.50;;;;;;4993828;28;20034;-53
2022/09/21 01:35:00;;;;;;;7.20;2.45;;;17.30;64.90;;;;;;4993944;28;20104;-53
2022/09/21 01:37:49;;;;;;;6.97;2.40;;;17.20;64.70;;;;;;4994429;28;20034;-55
2022/09/21 01:40:24;;;;;;;3.60;1.73;;;17.20;64.50;;;;;;4992508;28;20026;-55
2022/09/21 01:42:53;;;;;;;3.30;1.77;;;17.20;64.50;;;;;;4993887;28;20026;-53
2022/09/21 01:45:23;;;;;;;3.67;2.00;;;17.20;64.40;;;;;;4993757;28;20022;-52
2022/09/21 01:47:52;;;;;;;2.25;1.80;;;17.20;64.60;;;;;;4993770;28;20018;-52
2022/09/21 01:50:19;;;;;;;3.63;1.88;;;17.20;64.50;;;;;;4993742;28;20042;-52
2022/09/21 01:52:57;;;;;;;4.65;1.90;;;17.20;64.40;;;;;;4994065;28;20034;-54
2022/09/21 01:55:28;;;;;;;;;;;17.20;64.40;;;;;;4994106;28;20066;-53
2022/09/21 01:58:22;;;;;;;5.18;1.95;;;17.20;64.30;;;;;;4993618;28;19964;-52
2022/09/21 02:00:53;;;;;;;2.47;1.60;;;17.20;64.70;;;;;;4990876;28;20074;-54
2022/09/21 02:03:31;;;;;;;4.28;2.03;;;17.10;64.50;;;;;;4993852;28;20082;-53
2022/09/21 02:06:01;;;;;;;4.13;2.20;;;17.10;64.70;;;;;;4993588;28;20023;-54
2022/09/21 02:08:30;;;;;;;2.42;1.73;;;17.10;64.60;;;;;;4993496;28;20030;-52
2022/09/21 02:10:58;;;;;;;4.43;2.00;;;17.00;64.70;;;;;;4984577;28;20061;-51
2022/09/21 02:13:26;;;;;;;4.43;1.92;;;17.00;64.70;;;;;;4993290;28;20034;-54
2022/09/21 02:16:07;;;;;;;4.80;2.95;;;17.00;64.90;;;;;;4993187;28;20579;-54
2022/09/21 02:18:39;;;;;;;2.05;1.70;;;17.00;65.20;;;;;;4993127;28;20122;-52
2022/09/21 02:21:12;;;;;;;2.35;1.90;;;17.00;65.00;;;;;;4992922;28;20511;-54
2022/09/21 02:24:03;;;;;;;3.90;1.75;;;17.00;65.00;;;;;;4993125;28;20026;-54
2022/09/21 02:26:36;;;;;;;3.60;1.95;;;17.00;65.00;;;;;;4993003;28;20073;-54
2022/09/21 02:29:07;;;;;;;4.15;1.70;;;17.00;64.80;;;;;;4992784;28;20052;-54
2022/09/21 02:31:47;;;;;;;6.82;1.67;;;17.00;65.00;;;;;;4975371;28;20034;-52
2022/09/21 02:34:22;;;;;;;2.83;1.85;;;17.00;64.90;;;;;;4993238;28;20444;-54
2022/09/21 02:36:57;;;;;;;3.67;2.03;;;16.90;64.80;;;;;;4992693;28;20030;-54
2022/09/21 02:39:54;;;;;;;4.35;1.77;;;16.90;64.90;;;;;;4992694;28;20069;-53
2022/09/21 02:42:31;;;;;;;4.43;2.13;;;16.90;65.00;;;;;;4936036;28;20035;-54
2022/09/21 02:45:00;;;;;;;4.47;2.47;;;16.80;65.30;;;;;;4992158;28;20030;-52
2022/09/21 02:47:37;;;;;;;4.00;2.03;;;16.80;65.40;;;;;;4991285;28;20456;-52
2022/09/21 02:50:09;;;;;;;4.40;1.92;;;16.80;66.00;;;;;;4991791;28;20136;-53
2022/09/21 02:52:39;;;;;;;2.65;1.60;;;16.70;65.60;;;;;;4989588;28;20053;-52
2022/09/21 02:55:06;;;;;;;4.22;2.65;;;16.70;66.10;;;;;;4992258;28;20493;-52
2022/09/21 02:57:32;;;;;;;4.43;2.60;;;16.70;66.50;;;;;;4992895;28;20029;-53
2022/09/21 02:59:58;;;;;;;3.28;2.15;;;16.70;66.80;;;;;;4992221;28;20038;-55
2022/09/21 03:02:33;;;;;;;7.20;2.20;;;16.70;67.20;;;;;;4991930;28;20118;-53
2022/09/21 03:04:59;;;;;;;4.38;2.47;;;16.70;67.60;;;;;;4991963;28;20253;-52
2022/09/21 03:07:25;;;;;;;3.47;1.95;;;16.70;68.10;;;;;;4991709;28;20033;-53
2022/09/21 03:09:50;;;;;;;4.38;2.42;;;16.70;68.20;;;;;;4992133;28;20117;-54
2022/09/21 03:12:16;;;;;;;2.95;2.45;;;16.70;68.50;;;;;;4974531;28;20117;-52
2022/09/21 03:14:42;;;;;;;5.68;2.33;;;16.70;68.40;;;;;;4974213;28;20489;-52
2022/09/21 03:17:08;;;;;;;3.63;2.00;;;16.70;68.70;;;;;;4992366;28;20026;-53
2022/09/21 03:19:33;;;;;;;4.60;2.10;;;16.80;68.80;;;;;;4992055;28;20488;-54
2022/09/21 03:21:59;;;;;;;6.50;2.35;;;16.70;69.10;;;;;;4992407;28;20033;-52
2022/09/21 03:27:09;;;;;;;3.50;2.08;;;16.70;69.40;;;;;;4992106;28;20077;-52
2022/09/21 03:29:35;;;;;;;4.22;2.33;;;16.70;69.50;;;;;;4991884;28;20034;-52
2022/09/21 03:32:01;;;;;;;3.38;1.85;;;16.70;70.00;;;;;;4991842;28;20456;-52
2022/09/21 03:34:26;;;;;;;7.03;2.08;;;16.70;69.50;;;;;;4991925;28;20408;-52
2022/09/21 03:36:52;;;;;;;4.43;1.75;;;16.60;69.20;;;;;;4991651;28;20034;-55
2022/09/21 03:39:17;;;;;;;8.32;1.75;;;16.60;69.00;;;;;;4991338;28;20038;-55
2022/09/21 03:41:44;;;;;;;5.15;1.40;;;16.60;68.70;;;;;;4990960;28;20031;-53
2022/09/21 03:44:09;;;;;;;6.70;1.77;;;16.50;68.50;;;;;;4992635;28;20026;-53
2022/09/21 03:46:35;;;;;;;2.53;1.27;;;16.50;68.50;;;;;;4991642;28;20409;-52
2022/09/21 03:49:01;;;;;;;5.50;1.23;;;16.40;68.50;;;;;;4973982;28;20440;-55
2022/09/21 03:51:30;;;;;;;1.30;1.13;;;16.50;68.40;;;;;;4991991;28;20026;-53
2022/09/21 03:53:56;;;;;;;2.65;1.17;;;16.50;68.30;;;;;;4992086;28;20389;-53
2022/09/21 03:56:22;;;;;;;4.70;1.00;;;16.40;68.90;;;;;;4991968;28;20038;-55
2022/09/21 03:58:48;;;;;;;2.28;1.30;;;16.40;68.30;;;;;;4992022;28;20027;-55
2022/09/21 04:01:13;;;;;;;1.58;1.00;;;16.40;68.10;;;;;;4989919;28;20105;-53
2022/09/21 04:03:39;;;;;;;2.83;1.33;;;16.40;68.10;;;;;;4983276;28;20033;-53
2022/09/21 04:06:12;;;;;;;7.78;1.70;;;16.50;68.70;;;;;;4991875;28;20054;-54
2022/09/21 04:08:38;;;;;;;3.05;0.95;;;16.40;68.10;;;;;;4991855;28;20042;-53
2022/09/21 04:11:16;;;;;;;3.65;1.40;;;16.40;68.00;;;;;;4992122;28;20085;-52
2022/09/21 04:13:43;;;;;;;2.38;1.00;;;16.40;68.20;;;;;;4991934;28;20049;-52
2022/09/21 04:16:09;;;;;;;2.33;0.95;;;16.40;68.00;;;;;;4991026;28;20038;-52
2022/09/21 04:18:36;;;;;;;4.53;0.98;;;16.30;67.90;;;;;;4991104;28;20428;-55
2022/09/21 04:21:02;;;;;;;;;;;16.30;68.10;;;;;;4992209;28;20544;-52
2022/09/21 04:23:28;;;;;;;1.05;0.75;;;16.30;68.00;;;;;;4991871;28;19993;-53
2022/09/21 04:25:54;;;;;;;1.15;0.80;;;16.30;68.00;;;;;;4990463;28;20031;-53
2022/09/21 04:28:21;;;;;;;3.20;1.33;;;16.30;68.10;;;;;;4991810;28;20030;-57
2022/09/21 04:30:47;;;;;;;;;;;16.20;68.30;;;;;;4992184;28;20022;-52
2022/09/21 04:33:13;;;;;;;0.90;0.90;;;16.20;68.80;;;;;;4991811;28;19956;-56
2022/09/21 04:35:38;;;;;;;1.20;1.00;;;16.20;68.50;;;;;;4991501;28;20551;-52
2022/09/21 04:38:04;;;;;;;3.25;1.00;;;16.10;68.40;;;;;;4991789;28;20026;-54
2022/09/21 04:40:30;;;;;;;1.67;0.85;;;16.20;68.50;;;;;;4994813;28;20038;-53
2022/09/21 04:42:55;;;;;;;1.27;0.80;;;16.20;68.50;;;;;;4995242;28;20018;-55
2022/09/21 04:45:22;;;;;;;1.20;1.10;;;16.20;68.40;;;;;;4977572;28;20018;-56
2022/09/21 04:47:48;;;;;;;1.63;1.20;;;16.20;68.30;;;;;;4995148;28;20034;-52
2022/09/21 04:50:14;;;;;;;1.25;0.82;;;16.20;68.20;;;;;;4994990;28;20030;-54
2022/09/21 04:52:40;;;;;;;4.55;1.83;;;16.20;68.00;;;;;;4995114;28;20085;-52
2022/09/21 04:55:06;;;;;;;7.40;1.10;;;16.20;67.90;;;;;;4994966;28;20058;-55
2022/09/21 04:57:32;;;;;;;2.58;0.95;;;16.30;67.90;;;;;;4994966;28;20050;-55
2022/09/21 04:59:58;;;;;;;3.03;1.10;;;16.30;68.00;;;;;;4994595;28;20610;-55
2022/09/21 05:02:24;;;;;;;4.03;1.00;;;16.30;68.00;;;;;;4995024;28;20445;-56
2022/09/21 05:04:49;;;;;;;4.43;1.10;;;16.30;67.90;;;;;;4994695;28;20026;-56
2022/09/21 05:07:15;;;;;;;0.70;0.70;;;16.30;67.70;;;;;;4994771;28;20101;-55
2022/09/21 05:12:26;;;;;;;1.25;0.98;;;16.40;67.40;;;;;;4994861;28;20037;-52
2022/09/21 05:14:52;;;;;;;3.90;1.05;;;16.40;67.30;;;;;;4994411;28;20030;-54
2022/09/21 05:17:21;;;;;;;1.75;0.88;;;16.40;67.30;;;;;;4994626;28;20035;-53
2022/09/21 05:19:47;;;;;;;1.67;1.00;;;16.50;67.20;;;;;;4994446;28;20030;-53
2022/09/21 05:22:13;;;;;;;1.80;1.10;;;16.50;67.20;;;;;;4976381;28;20045;-53
2022/09/21 05:24:38;;;;;;;1.23;1.00;;;16.50;67.20;;;;;;4994201;28;20465;-55
2022/09/21 05:27:04;;;;;;;1.50;0.88;;;16.50;67.30;;;;;;4994439;28;20171;-54
2022/09/21 05:29:30;;;;;;;3.78;1.15;;;16.60;67.20;;;;;;4994482;28;20382;-54
2022/09/21 05:32:24;;;;;;;3.08;1.73;;;16.50;67.20;;;;;;4994440;28;20034;-53
2022/09/21 05:35:19;;;;;;;1.25;0.82;;;16.60;67.20;;;;;;4994297;28;20029;-55
2022/09/21 05:37:50;;;;;;;1.33;1.00;;;16.70;66.90;;;;;;4994304;28;20041;-53
2022/09/21 05:40:17;;;;;;;2.30;1.33;;;16.70;66.80;;;;;;4976609;28;20069;-55
2022/09/21 05:42:42;;;;;;;6.13;1.13;;;16.70;66.80;;;;;;4994358;28;20023;-54
2022/09/21 05:45:14;;;;;;;5.93;1.08;;;16.70;66.80;;;;;;4994059;28;20551;-54
2022/09/21 05:47:48;;;;;;;2.28;0.90;;;16.80;66.60;;;;;;4994146;28;20026;-53
2022/09/21 05:50:23;;;;;;;4.40;1.00;;;16.90;66.20;;;;;;4993472;28;20388;-52
2022/09/21 05:53:08;;;;;;;1.85;0.90;;;16.90;66.10;;;;;;4994108;28;20034;-52
2022/09/21 05:55:51;;;;;;;3.15;1.00;;;16.90;66.50;;;;;;4993930;28;20053;-54
2022/09/21 05:58:20;;;;;;;4.57;1.00;;;16.80;66.40;;;;;;4993772;28;20026;-53
2022/09/21 06:00:53;;;;;;;1.83;1.33;;;16.80;66.40;;;;;;4993957;28;20065;-53
2022/09/21 06:03:29;;;;;;;1.80;1.00;;;16.80;66.50;;;;;;4993771;28;20030;-55
2022/09/21 06:05:56;;;;;;;2.03;1.10;;;16.90;66.20;;;;;;4992969;28;20451;-55
2022/09/21 06:08:22;;;;;;;3.53;1.17;;;16.90;66.00;;;;;;4993629;28;20030;-53
2022/09/21 06:10:49;;;;;;;5.72;1.10;;;16.90;65.90;;;;;;4993682;28;20034;-52
2022/09/21 06:13:14;;;;;;;1.08;0.90;;;16.90;65.90;;;;;;4993620;28;20027;-54
2022/09/21 06:15:41;;;;;;;4.40;1.27;;;17.00;65.70;;;;;;4993508;28;20374;-54
2022/09/21 06:18:07;;;;;;;3.13;0.90;;;17.00;65.60;;;;;;4993557;28;20489;-52
2022/09/21 06:20:34;;;;;;;3.75;0.90;;;17.00;65.20;;;;;;4975990;28;20281;-55
2022/09/21 06:23:08;;;;;;;7.93;1.73;;;17.10;65.20;;;;;;4976933;28;20073;-53
2022/09/21 06:25:34;;;;;;;1.30;1.13;;;17.10;65.30;;;;;;4973820;28;20273;-56
2022/09/21 06:28:04;;;;;;;5.17;1.00;;;17.20;65.50;;;;;;4973943;28;20027;-58
2022/09/21 06:30:34;;;;;;;1.65;1.20;;;17.30;65.20;;;;;;4973708;28;20073;-58
2022/09/21 06:33:01;;;;;;;5.95;1.50;;;17.40;65.00;;;;;;4973925;28;20026;-56
2022/09/21 06:35:31;;;;;;;4.82;1.20;;;17.50;65.00;;;;;;4981278;28;20041;-56
2022/09/21 06:38:01;;;;;;;3.13;1.88;;;17.70;64.60;;;;;;4993139;28;20030;-56
2022/09/21 06:40:28;;;;;;;2.88;1.83;;;17.80;64.30;;;;;;4992715;28;20024;-56
2022/09/21 06:42:58;;;;;;;3.47;1.27;;;17.70;64.30;;;;;;4992848;28;20386;-55
2022/09/21 06:45:25;;;;;;;4.05;1.45;;;17.70;64.70;;;;;;4992633;28;20014;-56
2022/09/21 06:47:51;;;;;;;1.95;1.27;;;17.70;64.70;;;;;;4992228;28;20030;-56
2022/09/21 06:50:16;;;;;;;3.75;1.02;;;17.70;64.90;;;;;;4974737;28;20405;-55
2022/09/21 06:52:42;;;;;;;2.08;0.95;;;17.60;65.30;;;;;;4993312;28;20477;-57
2022/09/21 06:55:09;;;;;;;6.72;1.70;;;17.60;65.50;;;;;;4992881;28;20030;-56
2022/09/21 06:57:37;;;;;;;7.65;1.33;;;17.60;65.70;;;;;;4992827;28;20027;-56
2022/09/21 07:00:04;;;;;;;4.88;1.80;;;17.60;65.90;;;;;;4975058;28;20033;-55
2022/09/21 07:02:30;;;;;;;;;;;17.60;65.90;;;;;;4992323;28;20397;-55
2022/09/21 07:04:57;;;;;;;3.67;1.60;;;17.70;66.40;;;;;;4992504;28;19906;-55
2022/09/21 07:07:23;;;;;;;;;;;17.60;66.30;;;;;;4993032;28;20018;-57
2022/09/21 07:09:48;;;;;;;5.80;1.95;;;17.70;66.70;;;;;;4992472;28;19906;-55
2022/09/21 07:12:14;;;;;;;2.92;1.73;;;17.70;66.30;;;;;;4992594;28;20018;-56
2022/09/21 07:14:40;;;;;;;3.67;1.77;;;17.80;66.10;;;;;;4992377;28;20030;-57
2022/09/21 07:17:07;;;;;;;2.00;1.10;;;17.80;66.10;;;;;;4992476;28;20026;-55
2022/09/21 07:19:32;;;;;;;5.13;1.70;;;17.90;65.90;;;;;;4992168;28;20053;-56
2022/09/21 07:21:58;;;;;;;1.90;1.02;;;18.00;65.80;;;;;;4992414;28;20054;-55
2022/09/21 07:24:24;;;;;;;1.52;1.20;;;18.10;65.90;;;;;;4992416;28;20014;-57
2022/09/21 07:26:49;;;;;;;3.10;1.13;;;18.10;65.30;;;;;;4992237;28;20116;-57
2022/09/21 07:29:15;;;;;;;1.50;0.90;;;18.20;64.90;;;;;;4992166;28;20026;-57
2022/09/21 07:31:43;;;;;;;2.80;1.30;;;18.30;64.30;;;;;;4992313;28;20050;-56
2022/09/21 07:34:10;;;;;;;3.92;1.20;;;18.30;64.70;;;;;;4991626;28;20080;-60
2022/09/21 07:36:35;;;;;;;3.47;1.37;;;18.30;65.40;;;;;;4992060;28;20042;-62
2022/09/21 07:39:02;;;;;;;16.52;2.47;;;18.20;65.90;;;;;;4992208;28;20034;-62
2022/09/21 07:41:28;;;;;;;5.55;1.08;;;18.20;66.60;;;;;;4974858;28;20029;-60
2022/09/21 07:43:53;;;;;;;1.73;1.40;;;18.20;66.80;;;;;;4974788;28;20026;-62
2022/09/21 07:46:19;;;;;;;2.55;1.15;;;18.20;66.40;;;;;;4992121;28;20019;-62
2022/09/21 07:48:45;;;;;;;3.40;0.88;;;18.10;65.20;;;;;;4992279;28;20084;-62
2022/09/21 07:51:13;;;;;;;1.35;1.17;;;18.00;65.00;;;;;;4992173;28;20018;-61
2022/09/21 07:53:42;;;;;;;1.70;1.15;;;17.90;65.20;;;;;;4991771;28;21093;-56
2022/09/21 07:56:16;;;;;;;1.25;1.02;;;17.90;64.70;;;;;;4992141;28;20026;-54
2022/09/21 08:01:27;;;;;;;1.10;0.93;;;17.90;65.00;;;;;;4992044;28;20413;-57
2022/09/21 08:03:55;;;;;;;1.08;0.90;;;18.00;64.30;;;;;;4992429;28;20060;-57
2022/09/21 08:06:22;;;;;;;4.20;0.93;;;18.10;63.80;;;;;;4992143;28;20049;-57
2022/09/21 08:08:49;;;;;;;7.97;1.48;;;18.10;63.30;;;;;;4992161;28;20502;-58
2022/09/21 08:11:16;;;;;;;2.20;0.90;;;18.10;63.10;;;;;;4992555;28;20045;-58
2022/09/21 08:13:42;;;;;;;2.08;0.73;;;18.10;63.20;;;;;;4994526;28;20659;-58
2022/09/21 08:16:08;;;;;;;2.15;0.63;;;18.10;63.60;;;;;;4996423;28;20113;-58
2022/09/21 08:18:38;;;;;;;1.75;1.00;;;18.20;63.40;;;;;;4996083;28;20018;-58
2022/09/21 08:21:06;;;;;;;1.55;0.75;;;18.30;63.10;;;;;;4996408;28;20034;-58
2022/09/21 08:23:31;;;;;;;0.93;0.80;;;18.30;63.00;;;;;;4963072;28;20022;-59
2022/09/21 08:26:01;;;;;;;3.20;0.80;;;18.40;62.70;;;;;;4995984;28;20496;-58
2022/09/21 08:28:29;;;;;;;133.00;106.60;;;18.40;62.20;;;;;;4996201;28;20073;-59
2022/09/21 08:31:02;;;;;;;11.50;6.70;;;18.60;61.60;;;;;;4995513;28;20026;-56
2022/09/21 08:33:28;;;;;;;1.88;1.10;;;18.80;61.40;;;;;;4995537;28;20026;-58
2022/09/21 08:35:56;;;;;;;1.77;0.70;;;19.10;60.80;;;;;;4977708;28;20034;-57
2022/09/21 08:38:22;;;;;;;0.95;0.90;;;19.30;59.60;;;;;;4995142;28;20465;-58
2022/09/21 08:40:50;;;;;;;3.15;0.65;;;19.50;58.80;;;;;;4995221;28;20026;-58
2022/09/21 08:43:28;;;;;;;2.83;0.80;;;19.70;58.00;;;;;;4977768;28;20021;-58
2022/09/21 08:45:54;;;;;;;0.82;0.73;;;19.80;56.40;;;;;;4995130;28;20026;-58
2022/09/21 08:48:28;;;;;;;3.03;0.88;;;20.00;56.10;;;;;;4995177;28;20390;-58
2022/09/21 08:51:01;;;;;;;3.88;0.70;;;20.20;55.60;;;;;;4977616;28;20408;-57
2022/09/21 08:53:33;;;;;;;2.15;0.70;;;20.30;54.70;;;;;;4995045;28;20030;-58
2022/09/21 08:55:59;;;;;;;3.42;0.70;;;20.40;54.50;;;;;;4994942;28;20064;-56
2022/09/21 08:58:27;;;;;;;1.75;0.55;;;20.50;54.50;;;;;;4977364;28;20457;-58
2022/09/21 09:01:20;;;;;;;1.45;0.65;;;20.50;55.10;;;;;;4994932;28;20105;-56
2022/09/21 09:04:16;;;;;;;0.68;0.60;;;20.60;52.60;;;;;;4994908;28;20101;-56
2022/09/21 09:07:07;;;;;;;1.30;0.70;;;20.60;52.30;;;;;;4977238;28;20108;-58
2022/09/21 09:09:57;;;;;;;0.63;0.63;;;20.60;52.40;;;;;;4994689;28;20024;-56
2022/09/21 09:12:45;;;;;;;1.38;0.50;;;20.60;52.80;;;;;;4994746;28;20122;-56
2022/09/21 09:15:27;;;;;;;3.58;0.70;;;20.70;52.20;;;;;;4994579;28;20042;-58
2022/09/21 09:18:18;;;;;;;0.50;0.50;;;20.70;51.30;;;;;;4994626;28;20065;-58
2022/09/21 09:20:48;;;;;;;2.60;0.68;;;20.80;51.40;;;;;;4954394;28;20089;-59
2022/09/21 09:23:20;;;;;;;5.28;0.88;;;20.80;51.20;;;;;;4994600;28;20030;-56
2022/09/21 09:25:50;;;;;;;2.67;0.80;;;20.80;51.30;;;;;;4993662;28;20440;-58
2022/09/21 09:28:19;;;;;;;1.55;0.80;;;20.90;51.50;;;;;;4976936;28;20050;-56
2022/09/21 09:30:45;;;;;;;2.00;0.80;;;20.80;51.50;;;;;;4994346;28;20065;-58
2022/09/21 09:33:18;;;;;;;1.38;0.90;;;20.80;51.60;;;;;;4976926;28;20559;-57
2022/09/21 09:35:46;;;;;;;8.38;0.80;;;20.80;50.50;;;;;;4994213;28;20041;-58
2022/09/21 09:38:43;;;;;;;6.30;1.38;;;20.80;51.50;;;;;;4994074;28;20413;-58
2022/09/21 09:41:23;;;;;;;0.90;0.90;;;20.80;51.50;;;;;;4994118;28;20037;-58
2022/09/21 09:44:22;;;;;;;2.42;1.30;;;20.80;51.70;;;;;;4994209;28;20097;-56
2022/09/21 09:47:25;;;;;;;2.97;0.85;;;20.80;52.10;;;;;;4994099;28;20037;-56
2022/09/21 09:49:59;;;;;;;2.83;1.10;;;20.80;52.20;;;;;;4993976;28;20084;-58
2022/09/21 09:52:25;;;;;;;4.47;1.38;;;20.80;52.10;;;;;;4994032;28;20109;-61
2022/09/21 09:54:53;;;;;;;5.10;1.50;;;20.90;51.80;;;;;;4993900;28;20034;-59
2022/09/21 09:57:27;;;;;;;6.55;1.17;;;21.00;52.30;;;;;;4993910;28;20018;-57
2022/09/21 09:59:57;;;;;;;1.40;1.30;;;21.10;51.70;;;;;;4993637;28;20120;-58
2022/09/21 10:02:25;;;;;;;2.15;1.20;;;21.20;51.80;;;;;;4993840;28;20026;-58
2022/09/21 10:05:08;;;;;;;4.95;1.90;;;21.10;51.60;;;;;;4976177;28;20023;-57
2022/09/21 10:07:46;;;;;;;5.05;1.38;;;21.10;51.20;;;;;;4993757;28;20019;-58
2022/09/21 10:10:32;;;;;;;3.78;1.33;;;21.00;51.80;;;;;;4993369;28;20065;-58
2022/09/21 10:13:32;;;;;;;1.55;1.13;;;21.00;52.30;;;;;;4992776;28;20544;-57
2022/09/21 10:16:20;;;;;;;1.73;1.20;;;21.00;51.50;;;;;;4992003;28;20034;-58
2022/09/21 10:19:00;;;;;;;1.33;1.20;;;21.00;51.10;;;;;;4992851;28;20551;-57
2022/09/21 10:21:38;;;;;;;1.52;1.02;;;21.00;50.90;;;;;;4992298;28;20046;-58
2022/09/21 10:24:22;;;;;;;2.63;1.40;;;20.90;51.30;;;;;;4993479;28;20397;-57
2022/09/21 10:26:53;;;;;;;3.63;1.60;;;20.80;51.40;;;;;;4993215;28;20018;-57
2022/09/21 10:29:25;;;;;;;1.77;1.10;;;20.80;51.20;;;;;;4993167;28;20141;-56
2022/09/21 10:32:16;;;;;;;2.60;1.45;;;20.80;51.40;;;;;;4981677;28;20096;-58
2022/09/21 10:35:06;;;;;;;3.95;1.40;;;20.80;51.20;;;;;;4943440;28;20038;-60
2022/09/21 10:37:43;;;;;;;4.22;1.60;;;20.90;51.10;;;;;;4976181;28;20042;-58
2022/09/21 10:40:22;;;;;;;3.08;1.00;;;21.00;51.40;;;;;;4991261;28;20073;-55
2022/09/21 10:42:57;;;;;;;2.55;1.52;;;21.20;51.20;;;;;;4990992;28;20098;-58
2022/09/21 10:45:23;;;;;;;2.45;1.50;;;21.30;50.40;;;;;;4991958;28;20439;-58
2022/09/21 10:47:56;;;;;;;1.50;1.38;;;21.30;50.20;;;;;;4992996;28;20105;-57
2022/09/21 10:50:38;;;;;;;2.15;1.10;;;21.30;50.50;;;;;;4992824;28;20041;-58
2022/09/21 10:53:09;;;;;;;1.48;1.15;;;21.50;50.00;;;;;;4992303;28;20030;-55
2022/09/21 10:56:12;;;;;;;1.70;1.42;;;21.60;49.90;;;;;;4992640;28;20042;-55
2022/09/21 10:58:38;;;;;;;1.83;1.20;;;21.60;49.80;;;;;;4992816;28;20109;-54
2022/09/21 11:01:22;;;;;;;1.00;0.90;;;21.70;49.30;;;;;;4974785;28;20125;-54
2022/09/21 11:04:02;;;;;;;1.48;1.20;;;21.70;48.30;;;;;;4992471;28;20022;-56
2022/09/21 11:06:46;;;;;;;3.08;1.10;;;21.80;48.80;;;;;;4991781;28;20105;-56
2022/09/21 11:09:17;;;;;;;3.03;1.40;;;21.80;48.70;;;;;;4992370;28;20058;-54
2022/09/21 11:11:49;;;;;;;16.92;9.25;;;21.80;46.80;;;;;;4974311;28;20038;-59
2022/09/21 11:14:47;;;;;;;4.70;3.75;;;21.80;46.60;;;;;;4990786;28;20060;-59
2022/09/21 11:17:33;;;;;;;2.92;0.80;;;21.80;46.30;;;;;;4990322;28;20056;-59
2022/09/21 11:20:20;;;;;;;1.90;1.00;;;21.90;44.60;;;;;;4990438;28;20129;-57
2022/09/21 11:23:14;;;;;;;1.20;0.75;;;21.90;45.10;;;;;;4992537;28;20026;-54
2022/09/21 11:25:59;;;;;;;1.60;1.00;;;22.00;45.30;;;;;;4990425;28;20042;-56
2022/09/21 11:28:32;;;;;;;1.58;1.45;;;22.10;45.30;;;;;;4992369;28;20022;-55
2022/09/21 11:31:25;;;;;;;0.63;0.63;;;22.10;44.50;;;;;;4991927;28;20050;-55
2022/09/21 11:34:03;;;;;;;1.70;0.90;;;22.10;43.80;;;;;;4974943;28;20038;-59
2022/09/21 11:36:54;;;;;;;0.77;0.77;;;22.20;43.70;;;;;;4992174;28;20093;-55
2022/09/21 11:39:45;;;;;;;2.38;1.23;;;22.20;43.20;;;;;;4990803;28;20030;-55
2022/09/21 11:42:32;;;;;;;1.77;1.10;;;22.30;43.70;;;;;;4990790;28;20026;-58
2022/09/21 11:45:00;;;;;;;0.88;0.80;;;22.30;43.10;;;;;;4974991;28;20076;-56
2022/09/21 11:47:47;;;;;;;2.90;1.10;;;22.30;43.10;;;;;;4992567;28;20022;-57
2022/09/21 11:50:35;;;;;;;2.58;1.00;;;22.40;43.30;;;;;;4995863;28;20045;-56
2022/09/21 11:53:19;;;;;;;1.42;0.98;;;22.50;43.70;;;;;;4978719;28;20085;-57
2022/09/21 11:56:09;;;;;;;1.45;0.85;;;22.50;43.90;;;;;;4996022;28;20062;-54
2022/09/21 11:58:41;;;;;;;1.63;0.70;;;22.50;44.10;;;;;;4995951;28;20022;-56
2022/09/21 12:01:16;;;;;;;1.10;0.75;;;22.60;43.40;;;;;;4994649;28;20060;-55
2022/09/21 12:04:09;;;;;;;2.17;1.27;;;22.60;42.30;;;;;;4995854;28;20505;-57
2022/09/21 12:07:16;;;;;;;1.45;0.98;;;22.70;43.30;;;;;;4995936;28;20157;-54
2022/09/21 12:10:04;;;;;;;1.90;1.23;;;22.80;43.20;;;;;;4995483;28;20023;-57
2022/09/21 12:13:14;;;;;;;1.38;0.70;;;22.80;42.30;;;;;;4995810;28;20030;-57
2022/09/21 12:15:56;;;;;;;1.35;0.85;;;22.90;41.50;;;;;;4935137;29;20042;-57
2022/09/21 12:18:37;;;;;;;2.25;1.15;;;22.90;42.20;;;;;;4935475;29;20031;-54
2022/09/21 12:21:21;;;;;;;1.00;0.85;;;22.90;41.30;;;;;;4971410;28;20056;-56
2022/09/21 12:23:55;;;;;;;0.77;0.77;;;23.00;41.00;;;;;;4995461;28;20061;-57
2022/09/21 12:26:26;;;;;;;1.45;1.00;;;23.10;41.90;;;;;;4994477;28;20489;-56
2022/09/21 12:29:01;;;;;;;3.20;0.80;;;23.10;42.50;;;;;;4978086;28;20034;-57
2022/09/21 12:31:55;;;;;;;2.60;1.23;;;23.20;42.90;;;;;;4995471;28;20034;-57
2022/09/21 12:34:25;;;;;;;2.75;1.00;;;23.20;42.80;;;;;;4995196;28;20041;-57
2022/09/21 12:36:59;;;;;;;3.08;1.20;;;23.20;42.50;;;;;;4994975;28;20042;-57
2022/09/21 12:39:31;;;;;;;1.23;0.80;;;23.30;42.00;;;;;;4995036;28;20026;-57
2022/09/21 12:42:18;;;;;;;3.75;1.35;;;23.40;42.60;;;;;;4995554;28;20054;-55
2022/09/21 12:44:53;;;;;;;3.17;1.23;;;23.60;42.90;;;;;;4995085;28;20027;-55
2022/09/21 12:47:56;;;;;;;1.80;0.75;;;23.90;42.30;;;;;;4995175;28;20034;-57
2022/09/21 12:50:36;;;;;;;0.90;0.80;;;24.30;41.70;;;;;;4964637;28;20113;-58
2022/09/21 12:53:02;;;;;;;4.00;1.40;;;24.50;39.60;;;;;;4995558;28;20105;-55
2022/09/21 12:55:50;;;;;;;1.45;0.70;;;24.40;39.70;;;;;;4995226;28;20030;-54
2022/09/21 12:58:38;;;;;;;2.55;1.38;;;24.40;39.00;;;;;;4994941;28;20033;-54
2022/09/21 13:01:19;;;;;;;1.75;0.88;;;24.50;39.20;;;;;;4994059;28;20030;-56
2022/09/21 13:04:15;;;;;;;5.70;1.20;;;24.70;39.00;;;;;;4995189;28;20042;-57
2022/09/21 13:07:08;;;;;;;1.55;1.08;;;24.90;38.30;;;;;;4981751;28;20040;-56
2022/09/21 13:09:43;;;;;;;1.15;1.00;;;25.00;38.00;;;;;;4994771;28;20032;-55
2022/09/21 13:12:22;;;;;;;2.35;1.00;;;25.20;38.50;;;;;;4994692;28;20054;-54
2022/09/21 13:15:00;;;;;;;4.57;1.58;;;25.50;38.60;;;;;;4994700;28;20030;-57
2022/09/21 13:17:29;;;;;;;7.18;1.05;;;25.80;37.80;;;;;;4994452;28;20487;-55
2022/09/21 13:20:00;;;;;;;4.40;1.27;;;26.20;37.30;;;;;;4976984;28;20109;-57
2022/09/21 13:22:33;;;;;;;5.95;1.30;;;26.10;37.20;;;;;;4994609;28;20381;-54
2022/09/21 13:25:07;;;;;;;1.70;1.15;;;26.30;37.60;;;;;;4976998;28;20049;-57
2022/09/21 13:28:08;;;;;;;1.25;1.15;;;26.50;37.20;;;;;;4994171;28;20527;-57